Time;durP1;ratioP1;P1;durP2;ratioP2;P2;SDS_P1;SDS_P2;PMS_P1;PMS_P2;Temp;Humidity;BMP_temperature;BMP_pressure;BME280_temperature;BME280_humidity;BME280_pressure;Samples;Min_cycle;Max_cycle;Signal;HPM_P1;HPM_P2
2024/01/20 00:00:49;;;;;;;3.00;1.98;;;;;;;-2.28;81.06;148096.94;10672935;27;20042;-73
2024/01/20 00:05:50;;;;;;;8.48;2.13;;;;;;;-2.23;80.55;148108.44;10672697;27;20046;-74
2024/01/20 00:10:52;;;;;;;2.85;1.83;;;;;;;-2.15;79.73;148128.88;10672205;27;20088;-74
2024/01/20 00:15:55;;;;;;;2.22;1.73;;;;;;;-2.08;79.21;148148.06;10632178;27;1132866;-75
2024/01/20 00:20:57;;;;;;;3.17;2.00;;;;;;;-2.17;79.40;148123.75;10655597;27;20047;-74
2024/01/20 00:25:59;;;;;;;3.47;2.28;;;;;;;-2.14;79.05;148132.69;10657117;27;20045;-74
2024/01/20 00:31:02;;;;;;;3.08;1.67;;;;;;;-2.05;78.21;148155.69;10674487;27;20035;-75
2024/01/20 00:36:04;;;;;;;6.53;1.73;;;;;;;-2.06;78.08;148153.16;10674268;27;20039;-74
2024/01/20 00:41:07;;;;;;;4.97;1.55;;;;;;;-2.07;78.01;148150.59;10655977;27;20095;-75
2024/01/20 00:46:09;;;;;;;2.95;1.40;;;;;;;-2.12;78.38;148136.56;10673805;27;20077;-73
2024/01/20 00:51:10;;;;;;;3.22;1.80;;;;;;;-2.12;77.88;148136.56;10673229;27;20049;-74
2024/01/20 00:56:12;;;;;;;4.60;2.05;;;;;;;-2.23;78.62;148108.44;10673312;27;20116;-74
2024/01/20 01:01:14;;;;;;;3.95;1.95;;;;;;;-2.21;78.05;148114.84;10672692;27;20043;-74
2024/01/20 01:06:16;;;;;;;1.98;1.40;;;;;;;-2.30;78.68;148093.13;10675024;27;20035;-75
2024/01/20 01:11:18;;;;;;;3.40;2.03;;;;;;;-2.16;77.59;148126.34;10653716;27;20103;-74
2024/01/20 01:16:20;;;;;;;2.13;1.75;;;;;;;-2.28;77.53;148096.94;10671256;27;20042;-74
2024/01/20 01:21:22;;;;;;;10.80;2.45;;;;;;;-2.29;77.44;148095.66;10653029;27;20043;-74
2024/01/20 01:26:23;;;;;;;2.83;1.70;;;;;;;-2.20;76.83;148117.38;10653098;27;20047;-74
2024/01/20 01:31:28;;;;;;;9.98;2.00;;;;;;;-2.14;76.37;148132.69;10670669;27;20042;-75
2024/01/20 01:36:30;;;;;;;4.15;1.95;;;;;;;-2.32;77.10;148086.72;10653299;27;20038;-74
2024/01/20 01:41:31;;;;;;;3.75;1.92;;;;;;;-2.31;76.64;148089.25;10670756;27;20122;-73
2024/01/20 01:46:34;;;;;;;2.22;1.70;;;;;;;-2.36;76.67;148076.47;10670515;27;20039;-73
2024/01/20 01:51:36;;;;;;;3.90;2.33;;;;;;;-2.25;76.13;148104.63;10670948;27;20410;-74
2024/01/20 01:56:41;;;;;;;2.20;1.50;;;;;;;-2.29;75.72;148095.66;10670349;27;20524;-74
2024/01/20 02:01:43;;;;;;;9.02;1.95;;;;;;;-2.33;76.13;148085.44;10651601;27;20058;-75
2024/01/20 02:06:45;;;;;;;2.80;2.00;;;;;;;-2.30;75.51;148091.84;10669883;27;20546;-75
2024/01/20 02:11:48;;;;;;;2.38;1.48;;;;;;;-2.15;74.25;148130.16;10669636;27;20030;-73
2024/01/20 02:16:50;;;;;;;3.13;1.80;;;;;;;-2.21;74.60;148113.53;10651450;27;20043;-74
2024/01/20 02:21:52;;;;;;;3.58;1.90;;;;;;;-2.35;75.15;148079.03;10670450;27;20042;-74
2024/01/20 02:26:53;;;;;;;3.97;2.10;;;;;;;-2.32;74.55;148087.97;10670567;27;20066;-74
2024/01/20 02:31:55;;;;;;;3.72;2.20;;;;;;;-2.34;74.40;148081.63;10670776;27;20148;-75
2024/01/20 02:36:57;;;;;;;3.55;1.80;;;;;;;-2.30;73.80;148091.84;10669992;27;20035;-74
2024/01/20 02:41:59;;;;;;;2.13;1.65;;;;;;;-2.30;73.82;148093.13;10669466;27;20404;-73
2024/01/20 02:47:01;;;;;;;3.83;2.10;;;;;;;-2.27;72.88;148099.47;10670055;27;20121;-74
2024/01/20 02:52:03;;;;;;;2.20;1.65;;;;;;;-2.23;72.46;148109.69;10669142;27;20084;-74
2024/01/20 02:57:05;;;;;;;3.58;1.75;;;;;;;-2.24;72.73;148105.88;10669840;27;20039;-74
2024/01/20 03:02:07;;;;;;;2.47;1.70;;;;;;;-2.35;72.47;148080.28;10650710;27;20050;-74
2024/01/20 03:07:09;;;;;;;6.68;1.77;;;;;;;-2.28;72.27;148096.94;10669683;27;20479;-74
2024/01/20 03:12:11;;;;;;;3.05;2.25;;;;;;;-2.29;72.37;148094.38;10673078;27;20114;-74
2024/01/20 03:17:13;;;;;;;5.43;1.80;;;;;;;-2.24;71.58;148105.88;10676716;27;20039;-74
2024/01/20 03:22:15;;;;;;;3.10;2.08;;;;;;;-2.27;71.72;148099.47;10677252;27;20049;-74
2024/01/20 03:27:17;;;;;;;2.83;1.90;;;;;;;-2.38;72.25;148072.66;10676794;27;20117;-73
2024/01/20 03:32:19;;;;;;;3.22;1.60;;;;;;;-2.41;72.37;148063.72;10675549;27;20076;-75
2024/01/20 03:37:21;;;;;;;5.93;2.15;;;;;;;-2.37;72.02;148075.22;10675145;27;20091;-74
2024/01/20 03:42:23;;;;;;;2.72;1.80;;;;;;;-2.37;72.00;148073.94;10657121;27;20502;-74
2024/01/20 03:47:25;;;;;;;3.42;1.83;;;;;;;-2.43;72.29;148059.91;10675757;27;20034;-74
2024/01/20 03:52:27;;;;;;;2.22;1.83;;;;;;;-2.42;71.62;148062.44;10676583;27;20043;-73
2024/01/20 03:57:28;;;;;;;2.47;1.60;;;;;;;-2.38;71.54;148071.41;10674850;27;20118;-73
2024/01/20 04:02:30;;;;;;;2.50;1.83;;;;;;;-2.49;72.12;148043.28;10675671;27;20039;-74
2024/01/20 04:07:32;;;;;;;5.32;1.80;;;;;;;-2.42;71.33;148061.16;10674585;27;20066;-75
2024/01/20 04:12:36;;;;;;;3.47;1.50;;;;;;;-2.69;72.28;147994.75;10655954;27;20046;-75
2024/01/20 04:17:37;;;;;;;3.45;1.35;;;;;;;-2.64;72.42;148006.25;10655903;27;20042;-75
2024/01/20 04:22:39;;;;;;;3.85;1.58;;;;;;;-2.42;70.91;148061.16;10673273;27;20115;-74
2024/01/20 04:27:41;;;;;;;2.45;1.55;;;;;;;-2.37;70.80;148075.22;10673701;27;20039;-74
2024/01/20 04:32:43;;;;;;;2.20;1.63;;;;;;;-2.53;71.14;148034.31;10673806;27;20069;-76
2024/01/20 04:37:45;;;;;;;1.90;1.52;;;;;;;-2.57;71.37;148025.41;10673242;27;20038;-75
2024/01/20 04:42:46;;;;;;;5.80;1.55;;;;;;;-2.60;71.71;148017.72;10674211;27;20035;-74
2024/01/20 04:47:48;;;;;;;2.67;1.50;;;;;;;-2.36;70.61;148076.47;10674317;27;20394;-74
2024/01/20 04:52:50;;;;;;;2.95;1.80;;;;;;;-2.66;71.63;148001.09;10673246;27;20039;-74
2024/01/20 04:57:52;;;;;;;2.17;1.60;;;;;;;-2.91;73.33;147938.56;10673610;27;20126;-74
2024/01/20 05:02:54;;;;;;;2.30;1.42;;;;;;;-2.78;72.41;147970.50;10653796;27;20043;-75
2024/01/20 05:07:56;;;;;;;3.17;1.85;;;;;;;-2.52;71.34;148036.91;10654146;27;20045;-73
2024/01/20 05:12:58;;;;;;;3.40;1.77;;;;;;;-2.43;70.17;148058.63;10672300;27;20121;-74
2024/01/20 05:17:59;;;;;;;2.05;1.85;;;;;;;-2.43;70.11;148058.63;10652262;27;20125;-74
2024/01/20 05:23:02;;;;;;;2.53;1.55;;;;;;;-2.36;70.04;148077.75;10671292;27;20047;-73
2024/01/20 05:28:04;;;;;;;2.67;2.30;;;;;;;-2.39;69.53;148068.81;10652937;27;20038;-74
2024/01/20 05:33:07;;;;;;;1.42;1.33;;;;;;;-2.43;70.37;148058.63;10652910;27;20383;-74
2024/01/20 05:38:09;;;;;;;2.65;1.60;;;;;;;-2.26;69.33;148100.75;10671014;27;20039;-73
2024/01/20 05:43:11;;;;;;;2.22;1.55;;;;;;;-2.33;70.07;148085.44;10671856;27;20053;-74
2024/01/20 05:48:12;;;;;;;1.70;1.15;;;;;;;-2.30;69.53;148091.84;10672114;27;20064;-75
2024/01/20 05:53:14;;;;;;;4.63;2.20;;;;;;;-2.35;69.47;148080.28;10672447;27;20050;-74
2024/01/20 05:58:16;;;;;;;2.88;1.92;;;;;;;-2.42;69.97;148061.16;10672543;27;20049;-73
2024/01/20 06:03:18;;;;;;;2.30;1.65;;;;;;;-2.31;69.10;148089.25;10672089;27;20043;-74
2024/01/20 06:08:20;;;;;;;3.72;1.77;;;;;;;-2.31;69.60;148090.53;10672381;27;20045;-74
2024/01/20 06:13:22;;;;;;;1.65;1.45;;;;;;;-2.41;70.01;148063.72;10672511;27;20051;-75
2024/01/20 06:18:23;;;;;;;1.88;1.52;;;;;;;-2.47;70.02;148049.69;10672087;27;20065;-74
2024/01/20 06:23:26;;;;;;;2.30;1.63;;;;;;;-2.45;70.07;148053.50;10655922;27;20038;-74
2024/01/20 06:28:29;;;;;;;2.63;1.67;;;;;;;-2.42;69.75;148062.44;10675798;27;20039;-74
2024/01/20 06:33:30;;;;;;;2.38;1.65;;;;;;;-2.36;69.21;148077.75;10673221;27;20076;-75
2024/01/20 06:38:32;;;;;;;2.25;1.58;;;;;;;-2.34;68.92;148082.88;10651538;27;20061;-73
2024/01/20 06:43:34;;;;;;;3.95;1.77;;;;;;;-2.34;69.34;148081.63;10651937;27;20054;-75
2024/01/20 06:48:36;;;;;;;3.33;2.03;;;;;;;-2.35;69.31;148080.28;10677117;27;20046;-74
2024/01/20 06:53:38;;;;;;;2.75;1.52;;;;;;;-2.37;69.32;148075.22;10660156;27;20059;-75
2024/01/20 06:58:39;;;;;;;2.92;1.95;;;;;;;-2.31;69.27;148089.25;10677427;27;20557;-74
2024/01/20 07:03:41;;;;;;;2.22;1.80;;;;;;;-2.27;68.88;148099.47;10677411;27;20074;-74
2024/01/20 07:08:43;;;;;;;4.40;1.70;;;;;;;-2.35;69.03;148079.03;10678407;27;20039;-75
2024/01/20 07:13:45;;;;;;;2.53;1.48;;;;;;;-2.28;68.92;148096.94;10660000;27;20041;-74
2024/01/20 07:18:48;;;;;;;3.28;1.50;;;;;;;-2.25;68.43;148104.63;10660832;27;20030;-75
2024/01/20 07:23:52;;;;;;;5.40;2.05;;;;;;;-2.35;69.10;148079.03;10678392;27;20127;-73
2024/01/20 07:28:54;;;;;;;3.65;1.95;;;;;;;-2.25;68.66;148104.63;10677979;27;20035;-73
2024/01/20 07:33:58;;;;;;;2.95;2.20;;;;;;;-2.26;68.90;148102.03;10677865;27;20118;-75
2024/01/20 07:39:00;;;;;;;2.53;1.92;;;;;;;-2.20;68.59;148116.09;10678053;27;20050;-74
2024/01/20 07:44:02;;;;;;;3.85;1.95;;;;;;;-2.24;68.92;148105.88;10679277;27;20042;-75
2024/01/20 07:49:04;;;;;;;2.85;1.80;;;;;;;-2.15;68.26;148128.88;10660749;27;20038;-74
2024/01/20 07:54:06;;;;;;;2.33;1.58;;;;;;;-2.17;68.49;148123.75;10681315;27;20060;-74
2024/01/20 07:59:08;;;;;;;3.00;1.70;;;;;;;-2.00;67.25;148167.19;10662146;27;20126;-74
2024/01/20 08:04:10;;;;;;;2.28;1.73;;;;;;;-1.89;66.94;148194.06;10679063;27;20098;-73
2024/01/20 08:09:12;;;;;;;2.58;1.50;;;;;;;-1.83;65.61;148209.38;10659003;27;20061;-73
2024/01/20 08:14:14;;;;;;;2.08;1.60;;;;;;;-1.80;65.33;148217.06;10677453;27;20042;-75
2024/01/20 08:19:16;;;;;;;2.72;1.42;;;;;;;-1.99;66.34;148169.78;10674316;27;20037;-75
2024/01/20 08:24:18;;;;;;;2.38;1.83;;;;;;;-1.97;66.15;148174.88;10677337;27;20045;-74
2024/01/20 08:29:22;;;;;;;2.85;1.95;;;;;;;-1.80;66.02;148217.06;10676902;27;20038;-75
2024/01/20 08:34:24;;;;;;;2.88;1.77;;;;;;;-1.82;64.87;148213.19;10643368;27;20043;-75
2024/01/20 08:39:26;;;;;;;2.72;2.10;;;;;;;-1.80;65.53;148217.06;10682410;27;20042;-73
2024/01/20 08:44:28;;;;;;;3.38;1.98;;;;;;;-1.62;65.00;148263.06;10678453;27;20130;-74
2024/01/20 08:49:30;;;;;;;2.70;1.90;;;;;;;-1.33;63.10;148334.66;10658666;27;20046;-73
2024/01/20 08:54:32;;;;;;;2.78;1.77;;;;;;;-1.41;63.63;148315.50;10658224;27;20117;-74
2024/01/20 08:59:34;;;;;;;2.50;1.38;;;;;;;-1.09;61.93;148396.06;10655864;27;20064;-74
2024/01/20 09:04:36;;;;;;;2.83;1.85;;;;;;;-1.13;61.68;148385.81;10673050;27;20043;-73
2024/01/20 09:09:38;;;;;;;1.90;1.30;;;;;;;-0.97;61.66;148424.16;10673916;27;20041;-73
2024/01/20 09:14:40;;;;;;;2.40;1.35;;;;;;;-0.96;62.04;148428.03;10672898;27;20051;-74
2024/01/20 09:19:41;;;;;;;2.33;1.75;;;;;;;-0.82;61.89;148462.56;10653885;27;20050;-74
2024/01/20 09:24:50;;;;;;;3.05;1.70;;;;;;;-0.79;61.37;148470.25;10673262;27;20060;-75
2024/01/20 09:29:52;;;;;;;2.13;1.45;;;;;;;-0.58;60.16;148523.94;10654746;27;20042;-74
2024/01/20 09:34:54;;;;;;;2.70;1.40;;;;;;;-0.55;59.93;148530.38;10654934;27;20041;-74
2024/01/20 09:39:57;;;;;;;3.00;1.70;;;;;;;-0.47;60.47;148549.59;10655260;27;20405;-74
2024/01/20 09:44:59;;;;;;;2.22;1.52;;;;;;;-0.51;60.61;148540.63;10672501;27;20070;-73
2024/01/20 09:50:04;;;;;;;2.33;1.90;;;;;;;-0.61;61.07;148516.31;10671638;27;20042;-73
2024/01/20 09:55:21;;;;;;;3.38;2.00;;;;;;;-0.61;62.15;148515.03;10671090;27;20042;-74
2024/01/20 10:00:33;;;;;;;4.15;1.70;;;;;;;-0.51;62.06;148540.63;10673283;27;20043;-74
2024/01/20 10:05:35;;;;;;;1.85;1.45;;;;;;;-0.43;60.87;148561.09;10654333;27;20402;-74
2024/01/20 10:10:37;;;;;;;2.92;1.73;;;;;;;-0.39;60.80;148571.34;10671488;27;20043;-74
2024/01/20 10:15:39;;;;;;;3.00;1.70;;;;;;;-0.33;61.22;148585.41;10671652;27;20448;-74
2024/01/20 10:20:41;;;;;;;2.45;1.58;;;;;;;-0.30;61.11;148593.09;10674378;27;20050;-74
2024/01/20 10:25:45;;;;;;;2.85;1.65;;;;;;;-0.37;61.91;148576.44;10680055;27;20393;-74
2024/01/20 10:30:46;;;;;;;2.92;2.08;;;;;;;-0.27;61.48;148602.06;10678310;27;20050;-73
2024/01/20 10:35:52;;;;;;;2.25;1.67;;;;;;;-0.19;61.03;148619.94;10678680;27;20038;-73
2024/01/20 10:40:55;;;;;;;3.20;2.50;;;;;;;-0.09;62.06;148645.53;10661130;27;20504;-73
2024/01/20 10:46:26;;;;;;;2.40;1.75;;;;;;;-0.11;61.96;148641.72;10657359;27;20035;-73
2024/01/20 10:51:28;;;;;;;4.50;1.70;;;;;;;0.04;60.48;148678.81;10678620;27;20047;-73
2024/01/20 10:56:31;;;;;;;2.35;1.83;;;;;;;0.12;61.17;148698.03;10678665;27;20039;-73
2024/01/20 11:01:33;;;;;;;3.38;1.67;;;;;;;0.09;61.66;148690.34;10677057;27;20042;-73
2024/01/20 11:06:36;;;;;;;1.98;1.65;;;;;;;0.30;61.10;148744.13;10678201;27;20406;-73
2024/01/20 11:11:38;;;;;;;2.83;1.75;;;;;;;0.84;59.00;148878.59;10677642;27;20049;-73
2024/01/20 11:16:42;;;;;;;2.42;1.75;;;;;;;1.92;56.08;149151.63;10658449;27;20046;-72
2024/01/20 11:21:44;;;;;;;4.88;2.92;;;;;;;1.81;55.16;149123.38;10657939;27;20042;-72
2024/01/20 11:26:46;;;;;;;2.55;1.92;;;;;;;2.61;54.60;149323.47;10676629;27;20041;-72
2024/01/20 11:31:48;;;;;;;4.35;2.70;;;;;;;2.69;53.54;149344.00;10675151;27;20049;-73
2024/01/20 11:36:52;;;;;;;3.78;2.25;;;;;;;3.43;50.50;149531.41;10676410;27;20043;-72
2024/01/20 11:42:03;;;;;;;3.70;3.00;;;;;;;3.41;51.55;149524.97;10675284;27;20406;-72
2024/01/20 11:47:05;;;;;;;3.50;2.00;;;;;;;3.55;51.14;149560.94;10675613;27;20459;-72
2024/01/20 11:52:08;;;;;;;4.80;2.22;;;;;;;3.26;52.92;149489.03;10675226;27;20459;-72
2024/01/20 11:57:10;;;;;;;2.33;2.10;;;;;;;2.37;55.44;149264.47;10675909;27;20058;-73
2024/01/20 12:02:11;;;;;;;2.60;2.17;;;;;;;2.45;55.31;149283.72;10677777;27;20046;-72
2024/01/20 12:07:13;;;;;;;4.65;2.25;;;;;;;2.25;54.65;149233.69;10676969;27;20057;-72
2024/01/20 12:12:16;;;;;;;2.75;2.28;;;;;;;2.08;56.81;149190.06;10675760;27;20035;-73
2024/01/20 12:17:22;;;;;;;7.93;2.40;;;;;;;2.21;56.13;149223.41;10673226;27;20050;-74
2024/01/20 12:22:24;;;;;;;8.20;2.65;;;;;;;2.03;56.65;149179.81;10672261;27;20062;-73
2024/01/20 12:27:26;;;;;;;5.43;2.50;;;;;;;1.81;57.89;149123.38;10675424;27;20035;-73
2024/01/20 12:32:28;;;;;;;5.50;2.65;;;;;;;2.10;57.73;149196.50;10674587;27;20039;-74
2024/01/20 12:37:30;;;;;;;3.13;1.80;;;;;;;1.59;59.44;149066.97;10674191;27;20045;-74
2024/01/20 12:42:32;;;;;;;2.55;2.00;;;;;;;1.41;59.36;149022.13;10674048;27;20106;-73
2024/01/20 12:47:34;;;;;;;2.97;2.00;;;;;;;1.24;60.18;148981.16;10675565;27;20043;-75
2024/01/20 12:52:36;;;;;;;2.70;1.92;;;;;;;1.13;61.20;148951.66;10640409;27;20057;-74
2024/01/20 12:57:38;;;;;;;2.70;2.03;;;;;;;1.10;61.26;148943.94;10674806;27;20398;-73
2024/01/20 13:02:40;;;;;;;3.10;1.65;;;;;;;1.04;61.95;148929.88;10675639;27;20070;-73
2024/01/20 13:07:42;;;;;;;2.17;1.75;;;;;;;0.94;62.25;148904.25;10675788;27;20038;-73
2024/01/20 13:12:44;;;;;;;3.60;2.00;;;;;;;0.84;62.50;148879.94;10675787;27;20508;-72
2024/01/20 13:17:46;;;;;;;3.47;2.00;;;;;;;0.76;63.79;148859.41;10673107;27;20031;-72
2024/01/20 13:22:48;;;;;;;4.85;2.95;;;;;;;0.82;63.76;148874.78;10671902;27;20490;-71
2024/01/20 13:27:49;;;;;;;3.83;2.90;;;;;;;0.79;64.32;148867.06;10655133;27;20133;-71
2024/01/20 13:32:52;;;;;;;4.43;2.80;;;;;;;0.89;64.74;148891.47;10674056;27;20073;-73
2024/01/20 13:37:53;;;;;;;6.30;1.70;;;;;;;0.83;64.79;148877.31;10674503;27;20030;-73
2024/01/20 13:42:55;;;;;;;2.63;2.15;;;;;;;0.77;64.68;148860.69;10655669;27;20430;-73
2024/01/20 13:47:57;;;;;;;3.28;1.92;;;;;;;0.92;64.42;148899.09;10655303;27;20053;-72
2024/01/20 13:52:59;;;;;;;4.32;2.10;;;;;;;0.93;64.72;148901.66;10674166;27;20126;-72
2024/01/20 13:58:02;;;;;;;3.08;2.28;;;;;;;0.81;65.15;148872.22;10654805;27;20039;-72
2024/01/20 14:03:04;;;;;;;9.18;7.25;;;;;;;0.65;65.42;148832.50;10672357;27;20043;-72
2024/01/20 14:08:06;;;;;;;8.48;5.70;;;;;;;0.75;64.97;148858.16;10670985;27;20043;-73
2024/01/20 14:13:08;;;;;;;3.20;2.60;;;;;;;0.60;65.23;148819.69;10672492;27;20039;-73
2024/01/20 14:18:11;;;;;;;6.72;3.30;;;;;;;0.69;64.97;148841.47;10671367;27;20448;-73
2024/01/20 14:23:13;;;;;;;3.47;2.20;;;;;;;0.44;66.22;148780.00;10652235;27;20107;-72
2024/01/20 14:28:15;;;;;;;10.95;7.45;;;;;;;0.51;65.40;148796.63;10670853;27;20079;-72
2024/01/20 14:33:17;;;;;;;3.97;2.60;;;;;;;0.50;65.67;148795.38;10669660;27;20125;-72
2024/01/20 14:38:19;;;;;;;20.02;9.48;;;;;;;0.36;65.75;148759.53;10672618;27;20039;-72
2024/01/20 14:43:21;;;;;;;20.55;10.20;;;;;;;0.28;66.53;148739.03;10672434;27;20551;-72
2024/01/20 14:48:23;;;;;;;10.98;7.32;;;;;;;0.37;65.62;148762.06;10671487;27;20047;-72
2024/01/20 14:53:25;;;;;;;3.92;2.92;;;;;;;0.07;67.15;148685.25;10654376;27;20064;-73
2024/01/20 14:58:28;;;;;;;4.30;3.20;;;;;;;-0.05;67.38;148655.78;10673876;27;20039;-73
2024/01/20 15:03:29;;;;;;;7.10;4.40;;;;;;;-0.02;67.85;148663.47;10672214;27;20041;-73
2024/01/20 15:08:31;;;;;;;15.90;8.45;;;;;;;-0.28;68.15;148598.19;10676990;27;20037;-72
2024/01/20 15:13:33;;;;;;;17.67;9.32;;;;;;;-0.15;67.89;148631.47;10677127;27;20042;-72
2024/01/20 15:18:35;;;;;;;8.23;6.20;;;;;;;-0.09;67.72;148646.88;10678932;27;20091;-72
2024/01/20 15:23:37;;;;;;;3.30;2.53;;;;;;;-0.29;67.85;148596.91;10677768;27;20062;-72
2024/01/20 15:28:38;;;;;;;10.57;6.75;;;;;;;-0.06;65.92;148654.50;10659482;27;20443;-72
2024/01/20 15:33:40;;;;;;;5.40;3.35;;;;;;;-0.28;67.45;148598.19;10678369;27;20049;-72
2024/01/20 15:38:42;;;;;;;3.80;2.60;;;;;;;-0.26;66.42;148603.34;10678796;27;20039;-72
2024/01/20 15:43:44;;;;;;;4.70;2.83;;;;;;;-0.36;66.72;148577.72;10677708;27;20043;-71
2024/01/20 15:48:46;;;;;;;2.80;1.90;;;;;;;-0.29;65.24;148596.91;10677369;27;20046;-72
2024/01/20 15:53:48;;;;;;;3.83;2.25;;;;;;;-0.33;65.26;148585.41;10677635;27;20113;-71
2024/01/20 15:58:50;;;;;;;3.03;2.25;;;;;;;-0.39;65.34;148571.34;10659393;27;20122;-72
2024/01/20 16:03:52;;;;;;;2.45;1.70;;;;;;;-0.46;65.09;148552.13;10676258;27;20045;-72
2024/01/20 16:08:56;;;;;;;3.17;2.13;;;;;;;-0.54;65.13;148534.19;10675305;27;20042;-72
2024/01/20 16:13:58;;;;;;;2.45;1.80;;;;;;;-0.43;64.47;148561.09;10674417;27;20051;-71
2024/01/20 16:19:00;;;;;;;2.40;1.63;;;;;;;-0.39;63.75;148570.06;10676231;27;20062;-71
2024/01/20 16:24:03;;;;;;;2.95;1.95;;;;;;;-0.50;63.97;148543.16;10656869;27;20043;-70
2024/01/20 16:29:05;;;;;;;7.72;2.03;;;;;;;-0.61;63.99;148516.31;10674343;27;20035;-71
2024/01/20 16:34:07;;;;;;;3.55;2.25;;;;;;;-0.65;63.98;148506.06;10673976;27;20122;-71
2024/01/20 16:39:09;;;;;;;3.40;1.80;;;;;;;-0.76;64.70;148479.19;10655038;27;20094;-71
2024/01/20 16:44:11;;;;;;;3.70;2.30;;;;;;;-0.68;63.67;148498.38;10673836;27;20079;-72
2024/01/20 16:49:13;;;;;;;2.97;2.03;;;;;;;-0.59;62.15;148521.41;10673690;27;20074;-72
2024/01/20 16:54:15;;;;;;;3.13;1.73;;;;;;;-0.64;61.52;148507.34;10673487;27;20039;-72
2024/01/20 16:59:17;;;;;;;2.17;1.40;;;;;;;-0.60;60.87;148517.59;10670433;27;20035;-72
2024/01/20 17:04:19;;;;;;;3.05;2.03;;;;;;;-0.53;59.70;148535.50;10672200;27;20051;-72
2024/01/20 17:09:21;;;;;;;3.58;1.92;;;;;;;-0.54;59.41;148534.19;10673433;27;20034;-72
2024/01/20 17:14:24;;;;;;;2.97;2.05;;;;;;;-0.56;59.40;148527.81;10673078;27;20050;-72
2024/01/20 17:19:30;;;;;;;2.90;2.30;;;;;;;-0.49;58.64;148544.44;10672549;27;20061;-73
2024/01/20 17:24:33;;;;;;;6.32;2.53;;;;;;;-0.52;59.30;148538.06;10637269;27;20106;-73
2024/01/20 17:29:35;;;;;;;2.78;2.30;;;;;;;-0.58;58.55;148522.69;10670938;27;20035;-74
2024/01/20 17:34:37;;;;;;;3.58;2.38;;;;;;;-0.63;58.64;148511.16;10672531;27;20512;-74
2024/01/20 17:39:39;;;;;;;3.55;2.58;;;;;;;-0.73;59.57;148485.59;10654398;27;20485;-73
2024/01/20 17:44:41;;;;;;;2.33;1.80;;;;;;;-0.71;57.73;148489.41;10653580;27;20050;-73
2024/01/20 17:49:42;;;;;;;3.10;2.10;;;;;;;-0.79;58.36;148471.53;10671862;27;20035;-73
2024/01/20 17:54:44;;;;;;;3.15;1.95;;;;;;;-0.79;57.92;148471.53;10672151;27;20059;-74
2024/01/20 17:59:46;;;;;;;3.15;2.85;;;;;;;-0.77;58.06;148476.63;10672357;27;20117;-73
2024/01/20 18:04:48;;;;;;;2.22;1.70;;;;;;;-0.82;58.01;148462.56;10672643;27;20126;-73
2024/01/20 18:09:50;;;;;;;3.40;2.05;;;;;;;-0.77;56.78;148475.34;10672017;27;20064;-73
2024/01/20 18:14:52;;;;;;;2.55;1.92;;;;;;;-0.78;56.98;148474.09;10653301;27;20062;-73
2024/01/20 18:19:54;;;;;;;2.42;1.58;;;;;;;-0.78;56.81;148474.09;10671927;27;20041;-74
2024/01/20 18:24:55;;;;;;;3.50;2.10;;;;;;;-0.88;57.81;148448.50;10673444;27;20505;-74
2024/01/20 18:29:57;;;;;;;2.95;1.98;;;;;;;-0.83;57.78;148460.03;10673185;27;20067;-74
2024/01/20 18:34:59;;;;;;;2.75;2.08;;;;;;;-0.83;56.96;148460.03;10673985;27;20047;-76
2024/01/20 18:40:01;;;;;;;2.90;1.48;;;;;;;-0.86;55.82;148452.34;10671671;27;20050;-74
2024/01/20 18:45:04;;;;;;;2.40;1.88;;;;;;;-0.82;56.16;148462.56;10680368;27;20049;-76
2024/01/20 18:50:10;;;;;;;1.90;1.42;;;;;;;-0.82;56.20;148463.84;10663620;27;20139;-75
2024/01/20 18:55:13;;;;;;;2.30;1.73;;;;;;;-0.88;55.34;148447.25;10664294;27;20047;-75
2024/01/20 19:00:15;;;;;;;2.63;1.55;;;;;;;-0.81;54.71;148465.13;10663942;27;20046;-76
2024/01/20 19:05:17;;;;;;;2.10;1.50;;;;;;;-0.94;55.26;148433.13;10646420;27;20141;-75
2024/01/20 19:10:19;;;;;;;2.97;1.40;;;;;;;-0.96;54.80;148428.03;10682243;27;20035;-76
2024/01/20 19:15:21;;;;;;;2.80;1.27;;;;;;;-0.94;54.94;148433.13;10663488;27;20039;-75
2024/01/20 19:20:23;;;;;;;2.35;2.08;;;;;;;-0.97;54.96;148425.50;10681661;27;20083;-75
2024/01/20 19:25:25;;;;;;;2.38;1.73;;;;;;;-1.11;55.09;148390.91;10681295;27;20034;-77
2024/01/20 19:30:28;;;;;;;3.10;1.75;;;;;;;-1.11;54.49;148390.91;10681630;27;20030;-77
2024/01/20 19:35:29;;;;;;;2.67;1.50;;;;;;;-1.03;54.21;148411.38;10682030;27;20039;-76
2024/01/20 19:40:31;;;;;;;2.90;1.70;;;;;;;-1.19;55.23;148370.50;10662193;27;20038;-76
2024/01/20 19:45:33;;;;;;;3.40;1.70;;;;;;;-1.29;56.73;148344.88;10661685;27;20049;-77
2024/01/20 19:50:35;;;;;;;2.90;1.48;;;;;;;-1.31;54.97;148341.06;10680496;27;20437;-76
2024/01/20 19:55:37;;;;;;;3.40;1.67;;;;;;;-1.43;55.84;148310.38;10680723;27;20042;-77
2024/01/20 20:00:39;;;;;;;2.35;1.85;;;;;;;-1.24;54.13;148356.38;10681922;27;20035;-75
2024/01/20 20:05:45;;;;;;;2.28;1.48;;;;;;;-1.35;55.73;148329.56;10664572;27;20070;-76
2024/01/20 20:10:47;;;;;;;2.60;1.50;;;;;;;-1.33;54.41;148334.66;10666718;27;20486;-76
2024/01/20 20:15:49;;;;;;;2.53;1.67;;;;;;;-1.57;55.87;148275.84;10682238;27;20463;-77
2024/01/20 20:20:52;;;;;;;2.70;1.67;;;;;;;-1.81;56.55;148215.78;10666767;27;20042;-77
2024/01/20 20:25:54;;;;;;;3.38;1.58;;;;;;;-1.84;56.38;148208.09;10667742;27;20057;-76
2024/01/20 20:30:56;;;;;;;2.88;1.85;;;;;;;-1.96;57.56;148176.16;10666906;27;20038;-76
2024/01/20 20:36:09;;;;;;;2.88;1.58;;;;;;;-2.01;55.63;148164.66;10663574;27;20050;-77
2024/01/20 20:41:12;;;;;;;3.42;2.08;;;;;;;-2.04;55.70;148158.28;10666593;27;20052;-77
2024/01/20 20:46:14;;;;;;;3.10;2.15;;;;;;;-2.01;55.20;148163.38;10684449;27;20047;-77
2024/01/20 20:51:17;;;;;;;3.80;1.75;;;;;;;-2.18;57.28;148122.47;10647139;27;20050;-76
2024/01/20 20:56:19;;;;;;;3.97;1.98;;;;;;;-2.30;58.35;148093.13;10683171;27;20071;-77
2024/01/20 21:01:21;;;;;;;2.92;2.13;;;;;;;-2.55;60.51;148029.22;10646754;27;20138;-76
2024/01/20 21:06:23;;;;;;;3.65;2.53;;;;;;;-2.59;60.02;148019.00;10662439;27;20050;-77
2024/01/20 21:11:26;;;;;;;3.83;2.67;;;;;;;-2.80;61.17;147967.91;10643668;27;20444;-78
2024/01/20 21:16:28;;;;;;;35.72;18.25;;;;;;;-2.68;59.92;147996.03;10677967;27;20046;-77
2024/01/20 21:21:30;;;;;;;26.90;14.68;;;;;;;-2.82;60.37;147961.53;10659567;27;20049;-77
2024/01/20 21:26:33;;;;;;;8.38;6.55;;;;;;;-2.54;60.00;148031.78;10660796;27;20038;-78
2024/01/20 21:31:35;;;;;;;5.68;4.57;;;;;;;-2.87;61.48;147948.78;10659273;27;20424;-77
2024/01/20 21:36:37;;;;;;;4.35;3.83;;;;;;;-2.95;61.82;147929.63;10656842;27;20051;-77
2024/01/20 21:41:39;;;;;;;4.40;2.35;;;;;;;-2.95;63.32;147928.34;10656352;27;20138;-77
2024/01/20 21:46:41;;;;;;;4.25;2.28;;;;;;;-2.83;63.28;147959.00;10676197;27;20095;-77
2024/01/20 21:51:42;;;;;;;3.80;2.20;;;;;;;-2.94;62.88;147930.88;10675379;27;20042;-77
2024/01/20 21:56:44;;;;;;;1.95;1.63;;;;;;;-2.94;61.69;147930.88;10675547;27;20409;-77
2024/01/20 22:01:46;;;;;;;2.42;1.40;;;;;;;-2.93;61.79;147933.44;10656202;27;20092;-77
2024/01/20 22:06:49;;;;;;;3.13;2.10;;;;;;;-3.14;61.88;147881.13;10674700;27;20068;-76
2024/01/20 22:11:52;;;;;;;2.78;2.03;;;;;;;-3.11;62.37;147888.75;10674524;27;20089;-76
2024/01/20 22:16:53;;;;;;;2.55;1.58;;;;;;;-3.12;60.24;147886.19;10673017;27;20038;-77
2024/01/20 22:21:55;;;;;;;1.30;1.20;;;;;;;-3.30;58.72;147841.53;10673048;27;20041;-77
2024/01/20 22:26:57;;;;;;;1.83;1.48;;;;;;;-3.27;58.80;147849.19;10656159;27;20038;-76
2024/01/20 22:32:01;;;;;;;2.67;1.35;;;;;;;-3.10;60.16;147892.59;10674358;27;20095;-77
2024/01/20 22:37:03;;;;;;;2.42;1.27;;;;;;;-3.32;61.69;147837.72;10672004;27;20039;-76
2024/01/20 22:42:05;;;;;;;2.83;1.65;;;;;;;-3.37;63.52;147824.91;10673494;27;20087;-77
2024/01/20 22:47:06;;;;;;;3.33;1.70;;;;;;;-3.38;64.14;147822.38;10672760;27;20035;-77
2024/01/20 22:52:09;;;;;;;2.35;1.77;;;;;;;-4.06;64.35;147652.66;10654442;27;20497;-76
2024/01/20 22:57:10;;;;;;;2.50;1.90;;;;;;;-3.76;65.00;147726.69;10654766;27;20083;-76
2024/01/20 23:02:12;;;;;;;3.30;1.80;;;;;;;-3.91;65.21;147688.38;10673690;27;20039;-75
2024/01/20 23:07:15;;;;;;;3.47;2.05;;;;;;;-4.20;66.60;147615.69;10673952;27;20035;-77
2024/01/20 23:12:16;;;;;;;3.42;1.98;;;;;;;-4.54;67.73;147531.50;10672436;27;20052;-76